sensor_id;sensor_type;location;lat;lon;timestamp;P1;durP1;ratioP1;P2;durP2;ratioP2
35634;SDS011;21757;43.610;1.440;2022-11-25T00:01:10;26.13;;;10.40;;
35634;SDS011;21757;43.610;1.440;2022-11-25T00:03:37;30.25;;;10.05;;
35634;SDS011;21757;43.610;1.440;2022-11-25T00:08:37;31.02;;;10.02;;
35634;SDS011;21757;43.610;1.440;2022-11-25T00:11:04;26.33;;;9.02;;
35634;SDS011;21757;43.610;1.440;2022-11-25T00:13:31;35.97;;;10.60;;
35634;SDS011;21757;43.610;1.440;2022-11-25T00:16:04;27.77;;;8.43;;
35634;SDS011;21757;43.610;1.440;2022-11-25T00:18:34;28.45;;;8.65;;
35634;SDS011;21757;43.610;1.440;2022-11-25T00:21:04;28.10;;;8.10;;
35634;SDS011;21757;43.610;1.440;2022-11-25T00:23:32;26.15;;;8.25;;
35634;SDS011;21757;43.610;1.440;2022-11-25T00:26:04;25.48;;;7.22;;
35634;SDS011;21757;43.610;1.440;2022-11-25T00:28:33;29.15;;;8.93;;
35634;SDS011;21757;43.610;1.440;2022-11-25T00:31:06;29.73;;;8.57;;
35634;SDS011;21757;43.610;1.440;2022-11-25T00:33:32;27.42;;;8.60;;
35634;SDS011;21757;43.610;1.440;2022-11-25T00:35:59;22.90;;;8.50;;
35634;SDS011;21757;43.610;1.440;2022-11-25T00:38:26;34.22;;;8.13;;
35634;SDS011;21757;43.610;1.440;2022-11-25T00:40:52;29.05;;;8.10;;
35634;SDS011;21757;43.610;1.440;2022-11-25T00:43:40;34.40;;;9.07;;
35634;SDS011;21757;43.610;1.440;2022-11-25T00:46:25;34.97;;;9.55;;
35634;SDS011;21757;43.610;1.440;2022-11-25T00:48:51;28.92;;;8.48;;
35634;SDS011;21757;43.610;1.440;2022-11-25T00:51:17;26.00;;;8.13;;
35634;SDS011;21757;43.610;1.440;2022-11-25T00:53:43;32.97;;;8.90;;
35634;SDS011;21757;43.610;1.440;2022-11-25T00:56:09;32.28;;;9.32;;
35634;SDS011;21757;43.610;1.440;2022-11-25T00:58:38;31.38;;;10.00;;
35634;SDS011;21757;43.610;1.440;2022-11-25T01:01:06;32.75;;;9.68;;
35634;SDS011;21757;43.610;1.440;2022-11-25T01:03:31;33.78;;;9.73;;
35634;SDS011;21757;43.610;1.440;2022-11-25T01:06:00;33.40;;;9.30;;
35634;SDS011;21757;43.610;1.440;2022-11-25T01:08:28;29.02;;;11.52;;
35634;SDS011;21757;43.610;1.440;2022-11-25T01:10:58;37.28;;;10.23;;
35634;SDS011;21757;43.610;1.440;2022-11-25T01:13:24;28.73;;;10.60;;
35634;SDS011;21757;43.610;1.440;2022-11-25T01:15:50;61.67;;;28.23;;
35634;SDS011;21757;43.610;1.440;2022-11-25T01:18:16;37.60;;;10.90;;
35634;SDS011;21757;43.610;1.440;2022-11-25T01:20:41;35.60;;;10.82;;
35634;SDS011;21757;43.610;1.440;2022-11-25T01:23:07;31.70;;;10.93;;
35634;SDS011;21757;43.610;1.440;2022-11-25T01:25:36;31.77;;;11.65;;
35634;SDS011;21757;43.610;1.440;2022-11-25T01:28:03;36.92;;;12.18;;
35634;SDS011;21757;43.610;1.440;2022-11-25T01:30:29;37.95;;;12.18;;
35634;SDS011;21757;43.610;1.440;2022-11-25T01:32:55;35.35;;;11.88;;
35634;SDS011;21757;43.610;1.440;2022-11-25T01:35:20;40.40;;;12.32;;
35634;SDS011;21757;43.610;1.440;2022-11-25T01:37:46;30.85;;;12.13;;
35634;SDS011;21757;43.610;1.440;2022-11-25T01:40:12;36.78;;;11.95;;
35634;SDS011;21757;43.610;1.440;2022-11-25T01:42:42;34.03;;;11.57;;
35634;SDS011;21757;43.610;1.440;2022-11-25T01:47:48;29.33;;;11.80;;
35634;SDS011;21757;43.610;1.440;2022-11-25T01:50:16;29.42;;;11.63;;
35634;SDS011;21757;43.610;1.440;2022-11-25T01:52:45;32.28;;;11.93;;
35634;SDS011;21757;43.610;1.440;2022-11-25T01:55:20;30.80;;;11.50;;
35634;SDS011;21757;43.610;1.440;2022-11-25T02:00:16;32.45;;;11.07;;
35634;SDS011;21757;43.610;1.440;2022-11-25T02:02:42;27.17;;;11.43;;
35634;SDS011;21757;43.610;1.440;2022-11-25T02:05:10;32.58;;;12.10;;
35634;SDS011;21757;43.610;1.440;2022-11-25T02:07:40;25.75;;;11.23;;
35634;SDS011;21757;43.610;1.440;2022-11-25T02:10:15;35.50;;;12.15;;
35634;SDS011;21757;43.610;1.440;2022-11-25T02:12:45;30.23;;;12.25;;
35634;SDS011;21757;43.610;1.440;2022-11-25T02:15:12;30.85;;;12.30;;
35634;SDS011;21757;43.610;1.440;2022-11-25T02:17:39;32.72;;;12.05;;
35634;SDS011;21757;43.610;1.440;2022-11-25T02:20:07;35.95;;;11.57;;
35634;SDS011;21757;43.610;1.440;2022-11-25T02:25:37;33.85;;;12.00;;
35634;SDS011;21757;43.610;1.440;2022-11-25T02:28:08;30.20;;;11.60;;
35634;SDS011;21757;43.610;1.440;2022-11-25T02:30:36;27.52;;;11.13;;
35634;SDS011;21757;43.610;1.440;2022-11-25T02:33:02;33.40;;;12.05;;
35634;SDS011;21757;43.610;1.440;2022-11-25T02:35:32;28.70;;;10.93;;
35634;SDS011;21757;43.610;1.440;2022-11-25T02:38:02;24.95;;;11.45;;
35634;SDS011;21757;43.610;1.440;2022-11-25T02:40:40;30.67;;;11.65;;
35634;SDS011;21757;43.610;1.440;2022-11-25T02:43:21;27.60;;;11.25;;
35634;SDS011;21757;43.610;1.440;2022-11-25T02:48:27;28.85;;;10.65;;
35634;SDS011;21757;43.610;1.440;2022-11-25T02:50:55;25.75;;;10.95;;
35634;SDS011;21757;43.610;1.440;2022-11-25T02:53:21;23.73;;;10.48;;
35634;SDS011;21757;43.610;1.440;2022-11-25T02:55:47;27.30;;;10.70;;
35634;SDS011;21757;43.610;1.440;2022-11-25T02:58:13;24.67;;;10.93;;
35634;SDS011;21757;43.610;1.440;2022-11-25T03:00:39;23.60;;;10.40;;
35634;SDS011;21757;43.610;1.440;2022-11-25T03:03:05;23.85;;;10.55;;
35634;SDS011;21757;43.610;1.440;2022-11-25T03:05:31;21.83;;;10.02;;
35634;SDS011;21757;43.610;1.440;2022-11-25T03:07:57;25.77;;;10.45;;
35634;SDS011;21757;43.610;1.440;2022-11-25T03:10:22;28.23;;;11.15;;
35634;SDS011;21757;43.610;1.440;2022-11-25T03:12:49;27.58;;;10.15;;
35634;SDS011;21757;43.610;1.440;2022-11-25T03:15:14;22.80;;;10.50;;
35634;SDS011;21757;43.610;1.440;2022-11-25T03:17:40;27.85;;;10.95;;
35634;SDS011;21757;43.610;1.440;2022-11-25T03:20:06;24.52;;;10.45;;
35634;SDS011;21757;43.610;1.440;2022-11-25T03:22:33;24.85;;;10.07;;
35634;SDS011;21757;43.610;1.440;2022-11-25T03:24:59;23.77;;;9.75;;
35634;SDS011;21757;43.610;1.440;2022-11-25T03:27:25;23.35;;;9.70;;
35634;SDS011;21757;43.610;1.440;2022-11-25T03:29:51;21.20;;;9.40;;
35634;SDS011;21757;43.610;1.440;2022-11-25T03:32:16;19.50;;;9.23;;
35634;SDS011;21757;43.610;1.440;2022-11-25T03:34:42;22.35;;;8.73;;
35634;SDS011;21757;43.610;1.440;2022-11-25T03:37:08;21.63;;;9.82;;
35634;SDS011;21757;43.610;1.440;2022-11-25T03:39:34;22.63;;;9.23;;
35634;SDS011;21757;43.610;1.440;2022-11-25T03:41:59;24.33;;;8.88;;
35634;SDS011;21757;43.610;1.440;2022-11-25T03:44:25;24.60;;;9.73;;
35634;SDS011;21757;43.610;1.440;2022-11-25T03:46:52;24.45;;;9.20;;
35634;SDS011;21757;43.610;1.440;2022-11-25T03:49:18;20.10;;;9.13;;
35634;SDS011;21757;43.610;1.440;2022-11-25T03:51:45;15.52;;;8.15;;
35634;SDS011;21757;43.610;1.440;2022-11-25T03:54:11;23.35;;;8.90;;
35634;SDS011;21757;43.610;1.440;2022-11-25T03:56:37;18.00;;;8.63;;
35634;SDS011;21757;43.610;1.440;2022-11-25T03:59:02;17.13;;;8.18;;
35634;SDS011;21757;43.610;1.440;2022-11-25T04:01:28;20.75;;;8.95;;
35634;SDS011;21757;43.610;1.440;2022-11-25T04:03:54;17.80;;;9.10;;
35634;SDS011;21757;43.610;1.440;2022-11-25T04:06:19;21.55;;;8.50;;
35634;SDS011;21757;43.610;1.440;2022-11-25T04:08:47;18.33;;;8.85;;
35634;SDS011;21757;43.610;1.440;2022-11-25T04:11:14;20.35;;;8.43;;
35634;SDS011;21757;43.610;1.440;2022-11-25T04:13:39;18.83;;;8.18;;
35634;SDS011;21757;43.610;1.440;2022-11-25T04:16:05;18.95;;;8.10;;
35634;SDS011;21757;43.610;1.440;2022-11-25T04:18:31;17.42;;;8.50;;
35634;SDS011;21757;43.610;1.440;2022-11-25T04:20:56;20.83;;;8.45;;
35634;SDS011;21757;43.610;1.440;2022-11-25T04:23:22;19.05;;;9.30;;
35634;SDS011;21757;43.610;1.440;2022-11-25T04:25:48;20.33;;;8.82;;
35634;SDS011;21757;43.610;1.440;2022-11-25T04:28:15;20.20;;;8.45;;
35634;SDS011;21757;43.610;1.440;2022-11-25T04:30:41;15.88;;;8.13;;
35634;SDS011;21757;43.610;1.440;2022-11-25T04:33:06;16.42;;;8.05;;
35634;SDS011;21757;43.610;1.440;2022-11-25T04:35:32;17.60;;;7.85;;
35634;SDS011;21757;43.610;1.440;2022-11-25T04:37:58;17.00;;;7.82;;
35634;SDS011;21757;43.610;1.440;2022-11-25T04:40:23;18.75;;;8.45;;
35634;SDS011;21757;43.610;1.440;2022-11-25T04:42:49;19.52;;;8.50;;
35634;SDS011;21757;43.610;1.440;2022-11-25T04:45:15;16.33;;;8.30;;
35634;SDS011;21757;43.610;1.440;2022-11-25T04:47:43;19.33;;;8.38;;
35634;SDS011;21757;43.610;1.440;2022-11-25T04:50:13;21.27;;;9.35;;
35634;SDS011;21757;43.610;1.440;2022-11-25T04:52:43;19.90;;;9.43;;
35634;SDS011;21757;43.610;1.440;2022-11-25T04:55:09;17.85;;;8.93;;
35634;SDS011;21757;43.610;1.440;2022-11-25T04:57:35;23.55;;;9.88;;
35634;SDS011;21757;43.610;1.440;2022-11-25T05:00:00;24.65;;;10.50;;
35634;SDS011;21757;43.610;1.440;2022-11-25T05:02:27;18.90;;;8.55;;
35634;SDS011;21757;43.610;1.440;2022-11-25T05:04:53;16.75;;;8.00;;
35634;SDS011;21757;43.610;1.440;2022-11-25T05:07:21;20.02;;;8.52;;
35634;SDS011;21757;43.610;1.440;2022-11-25T05:09:48;15.75;;;8.35;;
35634;SDS011;21757;43.610;1.440;2022-11-25T05:12:17;20.45;;;9.18;;
35634;SDS011;21757;43.610;1.440;2022-11-25T05:14:49;22.20;;;10.25;;
35634;SDS011;21757;43.610;1.440;2022-11-25T05:17:15;17.52;;;8.75;;
35634;SDS011;21757;43.610;1.440;2022-11-25T05:19:43;20.65;;;8.93;;
35634;SDS011;21757;43.610;1.440;2022-11-25T05:22:13;20.95;;;11.13;;
35634;SDS011;21757;43.610;1.440;2022-11-25T05:24:40;27.35;;;10.57;;
35634;SDS011;21757;43.610;1.440;2022-11-25T05:27:06;28.35;;;12.68;;
35634;SDS011;21757;43.610;1.440;2022-11-25T05:29:32;23.25;;;11.88;;
35634;SDS011;21757;43.610;1.440;2022-11-25T05:31:58;24.05;;;11.38;;
35634;SDS011;21757;43.610;1.440;2022-11-25T05:34:23;27.40;;;11.73;;
35634;SDS011;21757;43.610;1.440;2022-11-25T05:36:49;21.98;;;11.77;;
35634;SDS011;21757;43.610;1.440;2022-11-25T05:39:16;19.40;;;9.98;;
35634;SDS011;21757;43.610;1.440;2022-11-25T05:41:41;14.57;;;8.50;;
35634;SDS011;21757;43.610;1.440;2022-11-25T05:44:07;18.30;;;9.02;;
35634;SDS011;21757;43.610;1.440;2022-11-25T05:46:33;18.85;;;8.75;;
35634;SDS011;21757;43.610;1.440;2022-11-25T05:48:59;22.80;;;10.90;;
35634;SDS011;21757;43.610;1.440;2022-11-25T05:51:24;19.50;;;10.20;;
35634;SDS011;21757;43.610;1.440;2022-11-25T05:53:52;22.00;;;11.55;;
35634;SDS011;21757;43.610;1.440;2022-11-25T05:56:18;20.98;;;10.50;;
35634;SDS011;21757;43.610;1.440;2022-11-25T05:58:44;25.88;;;10.68;;
35634;SDS011;21757;43.610;1.440;2022-11-25T06:01:10;19.10;;;9.48;;
35634;SDS011;21757;43.610;1.440;2022-11-25T06:03:37;26.90;;;13.18;;
35634;SDS011;21757;43.610;1.440;2022-11-25T06:06:04;25.65;;;11.88;;
35634;SDS011;21757;43.610;1.440;2022-11-25T06:08:31;20.38;;;10.05;;
35634;SDS011;21757;43.610;1.440;2022-11-25T06:10:58;20.67;;;9.85;;
35634;SDS011;21757;43.610;1.440;2022-11-25T06:13:23;22.65;;;10.35;;
35634;SDS011;21757;43.610;1.440;2022-11-25T06:15:49;19.85;;;9.90;;
35634;SDS011;21757;43.610;1.440;2022-11-25T06:18:16;23.63;;;11.15;;
35634;SDS011;21757;43.610;1.440;2022-11-25T06:20:43;21.30;;;10.00;;
35634;SDS011;21757;43.610;1.440;2022-11-25T06:23:09;21.13;;;9.55;;
35634;SDS011;21757;43.610;1.440;2022-11-25T06:25:35;20.40;;;9.07;;
35634;SDS011;21757;43.610;1.440;2022-11-25T06:28:01;21.15;;;10.32;;
35634;SDS011;21757;43.610;1.440;2022-11-25T06:30:28;26.77;;;12.23;;
35634;SDS011;21757;43.610;1.440;2022-11-25T06:32:54;17.08;;;8.13;;
35634;SDS011;21757;43.610;1.440;2022-11-25T06:35:20;20.75;;;9.65;;
35634;SDS011;21757;43.610;1.440;2022-11-25T06:37:46;22.23;;;11.30;;
35634;SDS011;21757;43.610;1.440;2022-11-25T06:40:12;23.17;;;11.32;;
35634;SDS011;21757;43.610;1.440;2022-11-25T06:42:37;29.27;;;14.85;;
35634;SDS011;21757;43.610;1.440;2022-11-25T06:45:04;25.35;;;12.25;;
35634;SDS011;21757;43.610;1.440;2022-11-25T06:47:30;20.25;;;9.02;;
35634;SDS011;21757;43.610;1.440;2022-11-25T06:49:56;20.55;;;9.30;;
35634;SDS011;21757;43.610;1.440;2022-11-25T06:52:22;21.77;;;8.82;;
35634;SDS011;21757;43.610;1.440;2022-11-25T06:54:49;19.95;;;9.15;;
35634;SDS011;21757;43.610;1.440;2022-11-25T06:57:16;24.80;;;12.18;;
35634;SDS011;21757;43.610;1.440;2022-11-25T06:59:43;24.38;;;9.70;;
35634;SDS011;21757;43.610;1.440;2022-11-25T07:02:12;18.23;;;9.57;;
35634;SDS011;21757;43.610;1.440;2022-11-25T07:04:38;28.42;;;12.07;;
35634;SDS011;21757;43.610;1.440;2022-11-25T07:07:04;24.77;;;10.23;;
35634;SDS011;21757;43.610;1.440;2022-11-25T07:09:30;20.08;;;9.52;;
35634;SDS011;21757;43.610;1.440;2022-11-25T07:11:56;24.73;;;10.15;;
35634;SDS011;21757;43.610;1.440;2022-11-25T07:14:23;17.35;;;9.60;;
35634;SDS011;21757;43.610;1.440;2022-11-25T07:16:49;17.25;;;9.43;;
35634;SDS011;21757;43.610;1.440;2022-11-25T07:19:16;23.33;;;10.48;;
35634;SDS011;21757;43.610;1.440;2022-11-25T07:21:42;21.02;;;9.73;;
35634;SDS011;21757;43.610;1.440;2022-11-25T07:24:09;19.58;;;8.35;;
35634;SDS011;21757;43.610;1.440;2022-11-25T07:26:37;16.20;;;7.22;;
35634;SDS011;21757;43.610;1.440;2022-11-25T07:29:04;14.43;;;6.65;;
35634;SDS011;21757;43.610;1.440;2022-11-25T07:31:33;15.18;;;6.88;;
35634;SDS011;21757;43.610;1.440;2022-11-25T07:34:04;16.73;;;7.72;;
35634;SDS011;21757;43.610;1.440;2022-11-25T07:36:32;15.43;;;7.38;;
35634;SDS011;21757;43.610;1.440;2022-11-25T07:38:59;15.88;;;7.55;;
35634;SDS011;21757;43.610;1.440;2022-11-25T07:41:28;16.52;;;7.93;;
35634;SDS011;21757;43.610;1.440;2022-11-25T07:43:55;20.90;;;8.07;;
35634;SDS011;21757;43.610;1.440;2022-11-25T07:46:26;17.42;;;7.32;;
35634;SDS011;21757;43.610;1.440;2022-11-25T07:49:03;17.58;;;7.80;;
35634;SDS011;21757;43.610;1.440;2022-11-25T07:51:33;15.75;;;7.45;;
35634;SDS011;21757;43.610;1.440;2022-11-25T07:54:01;16.88;;;7.38;;
35634;SDS011;21757;43.610;1.440;2022-11-25T07:56:28;15.05;;;8.30;;
35634;SDS011;21757;43.610;1.440;2022-11-25T07:58:54;14.90;;;7.65;;
35634;SDS011;21757;43.610;1.440;2022-11-25T08:01:21;16.85;;;6.70;;
35634;SDS011;21757;43.610;1.440;2022-11-25T08:03:47;14.90;;;6.70;;
35634;SDS011;21757;43.610;1.440;2022-11-25T08:06:15;13.30;;;6.75;;
35634;SDS011;21757;43.610;1.440;2022-11-25T08:08:43;15.90;;;6.57;;
35634;SDS011;21757;43.610;1.440;2022-11-25T08:11:13;15.48;;;6.10;;
35634;SDS011;21757;43.610;1.440;2022-11-25T08:13:41;12.95;;;5.90;;
35634;SDS011;21757;43.610;1.440;2022-11-25T08:16:08;18.38;;;6.57;;
35634;SDS011;21757;43.610;1.440;2022-11-25T08:18:34;12.40;;;5.68;;
35634;SDS011;21757;43.610;1.440;2022-11-25T08:21:01;13.00;;;3.80;;
35634;SDS011;21757;43.610;1.440;2022-11-25T08:23:33;12.05;;;3.28;;
35634;SDS011;21757;43.610;1.440;2022-11-25T08:26:04;8.88;;;3.70;;
35634;SDS011;21757;43.610;1.440;2022-11-25T08:28:31;9.63;;;3.13;;
35634;SDS011;21757;43.610;1.440;2022-11-25T08:31:03;12.20;;;3.40;;
35634;SDS011;21757;43.610;1.440;2022-11-25T08:33:31;10.25;;;2.88;;
35634;SDS011;21757;43.610;1.440;2022-11-25T08:35:57;8.90;;;2.70;;
35634;SDS011;21757;43.610;1.440;2022-11-25T08:38:23;8.30;;;2.60;;
35634;SDS011;21757;43.610;1.440;2022-11-25T08:40:48;7.80;;;2.75;;
35634;SDS011;21757;43.610;1.440;2022-11-25T08:43:14;6.35;;;2.45;;
35634;SDS011;21757;43.610;1.440;2022-11-25T08:45:40;4.97;;;1.98;;
35634;SDS011;21757;43.610;1.440;2022-11-25T08:48:06;4.05;;;1.90;;
35634;SDS011;21757;43.610;1.440;2022-11-25T08:50:32;7.70;;;2.30;;
35634;SDS011;21757;43.610;1.440;2022-11-25T08:52:57;6.45;;;2.45;;
35634;SDS011;21757;43.610;1.440;2022-11-25T08:55:24;5.78;;;2.17;;
35634;SDS011;21757;43.610;1.440;2022-11-25T08:57:51;7.90;;;2.75;;
35634;SDS011;21757;43.610;1.440;2022-11-25T09:00:18;6.50;;;2.50;;
35634;SDS011;21757;43.610;1.440;2022-11-25T09:02:44;5.07;;;2.38;;
35634;SDS011;21757;43.610;1.440;2022-11-25T09:05:11;6.38;;;2.67;;
35634;SDS011;21757;43.610;1.440;2022-11-25T09:07:38;8.05;;;4.15;;
35634;SDS011;21757;43.610;1.440;2022-11-25T09:10:05;6.50;;;2.70;;
35634;SDS011;21757;43.610;1.440;2022-11-25T09:12:34;9.18;;;4.00;;
35634;SDS011;21757;43.610;1.440;2022-11-25T09:15:00;6.93;;;2.90;;
35634;SDS011;21757;43.610;1.440;2022-11-25T09:17:26;7.35;;;2.58;;
35634;SDS011;21757;43.610;1.440;2022-11-25T09:19:51;9.20;;;3.08;;
35634;SDS011;21757;43.610;1.440;2022-11-25T09:22:18;10.30;;;3.83;;
35634;SDS011;21757;43.610;1.440;2022-11-25T09:24:44;11.65;;;3.63;;
35634;SDS011;21757;43.610;1.440;2022-11-25T09:27:10;17.10;;;8.63;;
35634;SDS011;21757;43.610;1.440;2022-11-25T09:29:35;7.95;;;3.03;;
35634;SDS011;21757;43.610;1.440;2022-11-25T09:32:01;7.97;;;3.03;;
35634;SDS011;21757;43.610;1.440;2022-11-25T09:34:27;5.30;;;2.92;;
35634;SDS011;21757;43.610;1.440;2022-11-25T09:36:53;9.13;;;4.57;;
35634;SDS011;21757;43.610;1.440;2022-11-25T09:39:19;8.32;;;4.32;;
35634;SDS011;21757;43.610;1.440;2022-11-25T09:44:57;13.50;;;6.45;;
35634;SDS011;21757;43.610;1.440;2022-11-25T09:47:46;9.20;;;3.00;;
35634;SDS011;21757;43.610;1.440;2022-11-25T09:53:15;10.75;;;2.35;;
35634;SDS011;21757;43.610;1.440;2022-11-25T09:55:53;7.47;;;2.13;;
35634;SDS011;21757;43.610;1.440;2022-11-25T09:58:35;6.05;;;2.47;;
35634;SDS011;21757;43.610;1.440;2022-11-25T10:01:31;4.68;;;2.33;;
35634;SDS011;21757;43.610;1.440;2022-11-25T10:04:03;4.90;;;2.50;;
35634;SDS011;21757;43.610;1.440;2022-11-25T10:06:43;5.15;;;3.00;;
35634;SDS011;21757;43.610;1.440;2022-11-25T10:09:13;8.60;;;3.15;;
35634;SDS011;21757;43.610;1.440;2022-11-25T10:17:29;6.25;;;3.10;;
35634;SDS011;21757;43.610;1.440;2022-11-25T10:19:42;5.25;;;2.67;;
35634;SDS011;21757;43.610;1.440;2022-11-25T10:22:24;9.25;;;3.33;;
35634;SDS011;21757;43.610;1.440;2022-11-25T10:24:52;7.00;;;2.50;;
35634;SDS011;21757;43.610;1.440;2022-11-25T10:27:24;13.50;;;7.32;;
35634;SDS011;21757;43.610;1.440;2022-11-25T10:32:52;8.38;;;3.63;;
35634;SDS011;21757;43.610;1.440;2022-11-25T10:35:34;8.20;;;2.67;;
35634;SDS011;21757;43.610;1.440;2022-11-25T10:38:04;8.68;;;2.78;;
35634;SDS011;21757;43.610;1.440;2022-11-25T10:40:36;11.73;;;4.15;;
35634;SDS011;21757;43.610;1.440;2022-11-25T10:43:07;11.55;;;3.67;;
35634;SDS011;21757;43.610;1.440;2022-11-25T10:45:40;11.55;;;3.72;;
35634;SDS011;21757;43.610;1.440;2022-11-25T10:51:25;19.08;;;8.45;;
35634;SDS011;21757;43.610;1.440;2022-11-25T10:54:19;6.03;;;2.10;;
35634;SDS011;21757;43.610;1.440;2022-11-25T10:56:50;9.55;;;4.13;;
35634;SDS011;21757;43.610;1.440;2022-11-25T10:59:29;9.30;;;5.18;;
35634;SDS011;21757;43.610;1.440;2022-11-25T11:02:15;7.47;;;2.80;;
35634;SDS011;21757;43.610;1.440;2022-11-25T11:05:28;4.13;;;1.65;;
35634;SDS011;21757;43.610;1.440;2022-11-25T11:07:37;5.90;;;2.20;;
35634;SDS011;21757;43.610;1.440;2022-11-25T11:10:17;6.95;;;1.85;;
35634;SDS011;21757;43.610;1.440;2022-11-25T11:12:50;6.10;;;2.08;;
35634;SDS011;21757;43.610;1.440;2022-11-25T11:15:30;7.57;;;2.47;;
35634;SDS011;21757;43.610;1.440;2022-11-25T11:20:55;6.15;;;2.15;;
35634;SDS011;21757;43.610;1.440;2022-11-25T11:23:23;10.38;;;2.35;;
35634;SDS011;21757;43.610;1.440;2022-11-25T11:25:57;6.75;;;2.58;;
35634;SDS011;21757;43.610;1.440;2022-11-25T11:36:33;3.80;;;1.58;;
35634;SDS011;21757;43.610;1.440;2022-11-25T11:50:16;4.60;;;1.70;;
35634;SDS011;21757;43.610;1.440;2022-11-25T11:52:50;5.57;;;2.17;;
35634;SDS011;21757;43.610;1.440;2022-11-25T12:03:39;4.60;;;1.60;;
35634;SDS011;21757;43.610;1.440;2022-11-25T12:06:15;5.18;;;2.17;;
35634;SDS011;21757;43.610;1.440;2022-11-25T12:08:47;8.25;;;2.25;;
35634;SDS011;21757;43.610;1.440;2022-11-25T12:11:24;4.32;;;1.75;;
35634;SDS011;21757;43.610;1.440;2022-11-25T12:14:00;3.90;;;1.38;;
35634;SDS011;21757;43.610;1.440;2022-11-25T12:19:23;6.15;;;1.92;;
35634;SDS011;21757;43.610;1.440;2022-11-25T12:27:52;5.25;;;1.90;;
35634;SDS011;21757;43.610;1.440;2022-11-25T12:30:38;6.60;;;1.88;;
35634;SDS011;21757;43.610;1.440;2022-11-25T12:33:29;3.50;;;1.50;;
35634;SDS011;21757;43.610;1.440;2022-11-25T12:36:07;6.57;;;2.15;;
35634;SDS011;21757;43.610;1.440;2022-11-25T12:41:34;3.00;;;1.50;;
35634;SDS011;21757;43.610;1.440;2022-11-25T12:47:08;5.10;;;1.85;;
35634;SDS011;21757;43.610;1.440;2022-11-25T12:49:41;5.82;;;1.88;;
35634;SDS011;21757;43.610;1.440;2022-11-25T12:52:21;7.22;;;2.47;;
35634;SDS011;21757;43.610;1.440;2022-11-25T13:03:33;3.85;;;1.38;;
35634;SDS011;21757;43.610;1.440;2022-11-25T13:14:48;4.63;;;1.45;;
35634;SDS011;21757;43.610;1.440;2022-11-25T13:17:18;3.90;;;1.25;;
35634;SDS011;21757;43.610;1.440;2022-11-25T13:19:45;4.03;;;1.02;;
35634;SDS011;21757;43.610;1.440;2022-11-25T13:24:47;2.17;;;1.10;;
35634;SDS011;21757;43.610;1.440;2022-11-25T13:30:04;1.65;;;0.90;;
35634;SDS011;21757;43.610;1.440;2022-11-25T13:32:50;3.38;;;1.10;;
35634;SDS011;21757;43.610;1.440;2022-11-25T13:37:50;2.78;;;1.20;;
35634;SDS011;21757;43.610;1.440;2022-11-25T13:42:48;3.58;;;1.20;;
35634;SDS011;21757;43.610;1.440;2022-11-25T13:45:25;3.88;;;1.20;;
35634;SDS011;21757;43.610;1.440;2022-11-25T13:48:45;4.82;;;1.42;;
35634;SDS011;21757;43.610;1.440;2022-11-25T13:51:13;6.82;;;1.77;;
35634;SDS011;21757;43.610;1.440;2022-11-25T13:53:52;2.13;;;1.08;;
35634;SDS011;21757;43.610;1.440;2022-11-25T14:01:35;3.53;;;1.00;;
35634;SDS011;21757;43.610;1.440;2022-11-25T14:04:11;4.10;;;1.30;;
35634;SDS011;21757;43.610;1.440;2022-11-25T14:12:20;3.92;;;1.52;;
35634;SDS011;21757;43.610;1.440;2022-11-25T14:26:02;6.10;;;1.55;;
35634;SDS011;21757;43.610;1.440;2022-11-25T14:29:12;3.83;;;1.50;;
35634;SDS011;21757;43.610;1.440;2022-11-25T14:31:23;5.88;;;1.65;;
35634;SDS011;21757;43.610;1.440;2022-11-25T14:33:57;3.15;;;1.40;;
35634;SDS011;21757;43.610;1.440;2022-11-25T14:36:49;3.85;;;1.60;;
35634;SDS011;21757;43.610;1.440;2022-11-25T14:39:32;3.72;;;1.50;;
35634;SDS011;21757;43.610;1.440;2022-11-25T14:42:11;5.20;;;1.50;;
35634;SDS011;21757;43.610;1.440;2022-11-25T14:44:49;3.83;;;1.73;;
35634;SDS011;21757;43.610;1.440;2022-11-25T14:47:21;3.70;;;1.42;;
35634;SDS011;21757;43.610;1.440;2022-11-25T14:49:49;5.28;;;1.40;;
35634;SDS011;21757;43.610;1.440;2022-11-25T14:52:23;4.60;;;1.33;;
35634;SDS011;21757;43.610;1.440;2022-11-25T14:54:55;3.38;;;1.40;;
35634;SDS011;21757;43.610;1.440;2022-11-25T14:57:26;5.93;;;1.50;;
35634;SDS011;21757;43.610;1.440;2022-11-25T14:59:55;4.55;;;1.55;;
35634;SDS011;21757;43.610;1.440;2022-11-25T15:02:26;4.88;;;1.75;;
35634;SDS011;21757;43.610;1.440;2022-11-25T15:05:01;5.85;;;2.00;;
35634;SDS011;21757;43.610;1.440;2022-11-25T15:07:33;7.97;;;1.50;;
35634;SDS011;21757;43.610;1.440;2022-11-25T15:09:58;3.35;;;1.40;;
35634;SDS011;21757;43.610;1.440;2022-11-25T15:12:27;3.53;;;1.38;;
35634;SDS011;21757;43.610;1.440;2022-11-25T15:14:56;5.63;;;1.20;;
35634;SDS011;21757;43.610;1.440;2022-11-25T15:19:55;8.52;;;1.42;;
35634;SDS011;21757;43.610;1.440;2022-11-25T15:22:24;5.15;;;1.80;;
35634;SDS011;21757;43.610;1.440;2022-11-25T15:24:51;7.13;;;1.70;;
35634;SDS011;21757;43.610;1.440;2022-11-25T15:27:27;7.65;;;1.60;;
35634;SDS011;21757;43.610;1.440;2022-11-25T15:29:53;4.15;;;1.77;;
35634;SDS011;21757;43.610;1.440;2022-11-25T15:32:24;7.30;;;1.65;;
35634;SDS011;21757;43.610;1.440;2022-11-25T15:34:52;6.38;;;1.35;;
35634;SDS011;21757;43.610;1.440;2022-11-25T15:37:20;8.57;;;1.70;;
35634;SDS011;21757;43.610;1.440;2022-11-25T15:39:46;8.55;;;1.40;;
35634;SDS011;21757;43.610;1.440;2022-11-25T15:42:22;8.13;;;1.30;;
35634;SDS011;21757;43.610;1.440;2022-11-25T15:44:55;22.48;;;12.77;;
35634;SDS011;21757;43.610;1.440;2022-11-25T15:47:28;8.80;;;2.03;;
35634;SDS011;21757;43.610;1.440;2022-11-25T15:52:24;7.28;;;1.70;;
35634;SDS011;21757;43.610;1.440;2022-11-25T15:54:52;7.15;;;1.58;;
35634;SDS011;21757;43.610;1.440;2022-11-25T16:10:21;10.10;;;1.90;;
35634;SDS011;21757;43.610;1.440;2022-11-25T16:15:44;6.05;;;1.70;;
35634;SDS011;21757;43.610;1.440;2022-11-25T16:18:21;6.32;;;1.83;;
35634;SDS011;21757;43.610;1.440;2022-11-25T16:20:53;10.05;;;2.05;;
35634;SDS011;21757;43.610;1.440;2022-11-25T16:23:21;7.72;;;2.03;;
35634;SDS011;21757;43.610;1.440;2022-11-25T16:25:49;6.53;;;1.65;;
35634;SDS011;21757;43.610;1.440;2022-11-25T16:28:26;5.15;;;1.77;;
35634;SDS011;21757;43.610;1.440;2022-11-25T16:30:52;7.90;;;1.83;;
35634;SDS011;21757;43.610;1.440;2022-11-25T16:33:22;7.80;;;2.15;;
35634;SDS011;21757;43.610;1.440;2022-11-25T16:35:51;6.57;;;1.40;;
35634;SDS011;21757;43.610;1.440;2022-11-25T16:38:17;7.35;;;1.85;;
35634;SDS011;21757;43.610;1.440;2022-11-25T16:40:42;6.97;;;1.60;;
35634;SDS011;21757;43.610;1.440;2022-11-25T16:43:15;6.13;;;1.80;;
35634;SDS011;21757;43.610;1.440;2022-11-25T16:45:49;7.93;;;1.70;;
35634;SDS011;21757;43.610;1.440;2022-11-25T16:48:18;7.80;;;2.20;;
35634;SDS011;21757;43.610;1.440;2022-11-25T16:50:45;8.30;;;1.80;;
35634;SDS011;21757;43.610;1.440;2022-11-25T16:53:11;5.45;;;1.52;;
35634;SDS011;21757;43.610;1.440;2022-11-25T16:55:37;7.47;;;3.03;;
35634;SDS011;21757;43.610;1.440;2022-11-25T16:58:08;8.48;;;2.30;;
35634;SDS011;21757;43.610;1.440;2022-11-25T17:00:53;9.47;;;2.33;;
35634;SDS011;21757;43.610;1.440;2022-11-25T17:03:20;6.45;;;2.00;;
35634;SDS011;21757;43.610;1.440;2022-11-25T17:05:51;7.03;;;1.97;;
35634;SDS011;21757;43.610;1.440;2022-11-25T17:08:19;5.13;;;1.83;;
35634;SDS011;21757;43.610;1.440;2022-11-25T17:10:45;4.90;;;1.90;;
35634;SDS011;21757;43.610;1.440;2022-11-25T17:13:13;5.00;;;1.60;;
35634;SDS011;21757;43.610;1.440;2022-11-25T17:15:47;10.25;;;2.08;;